Flight Track Log - Related Links

Times and Time Zones

All times are in EDT time to prevent confusion due to time zone crossing. See the PDT4129 flight status page for this flight to view local times or setup timezone preferences in your user account.

Time Position Orientation Groundspeed Altitude Reporting Facility
EDT Latitude Longitude Course Direction KTS MPH feet Rate Location/Type
Sat 06:58:23 AM 35.7131 -77.3672 270° West 264 304 1,900  Level Washington Center
Sat 06:59:00 AM 35.7167 -77.4834 270° West  Level FlightAware Approximate
Sat 06:59:22 AM 35.7356 -77.4011 309° West 150 173 3,300  Level Washington Center
Sat 07:00:00 AM 35.7167 -77.5508 270° West  Level FlightAware Approximate
Sat 07:00:22 AM 35.7411 -77.4472 278° West 120 138 4,200  Level Washington Center
Sat 07:01:22 AM 35.7444 -77.5011 274° West 134 154 5,200 1,091 Climbing Washington Center
Sat 07:02:23 AM 35.7519 -77.5525 280° West 150 173 6,400 1,082 Climbing Washington Center
Sat 07:03:24 AM 35.7553 -77.6039 275° West 161 185 7,400 1,008 Climbing Washington Center
Sat 07:04:22 AM 35.7628 -77.6603 279° West 166 191 8,400 1,008 Climbing Washington Center
Sat 07:05:23 AM 35.7700 -77.7219 278° West 172 198 9,400 1,050 Climbing Washington Center
Sat 07:06:22 AM 35.7750 -77.7808 276° West 172 198 10,500 1,059 Climbing Washington Center
Sat 07:07:22 AM 35.7803 -77.8400 276° West 177 204 11,500 730 Climbing Washington Center
Sat 07:08:17 AM 35.7814 -77.8886 272° West 172 198 11,900 207 Climbing Washington Center
Sat 07:09:18 AM 35.7883 -77.9683 276° West 221 254 11,900  Level Washington Center
Sat 07:10:12 AM 35.8017 -78.0300 285° West 237 273 11,900  Level Washington Center
Sat 07:11:11 AM 35.8061 -78.1172 274° West 237 273 11,900  Level Washington Center
Sat 07:12:11 AM 35.8125 -78.1994 275° West 239 275 11,900  Level Washington Center
Sat 07:13:12 AM 35.8214 -78.2792 278° West 241 277 11,900  Level Washington Center
Sat 07:14:13 AM 35.8278 -78.3589 276° West 242 278 11,900  Level Washington Center
Sat 07:15:13 AM 35.8383 -78.4436 279° West 244 281 11,900  Level Washington Center
Sat 07:16:13 AM 35.8467 -78.5261 277° West 242 278 11,900  Level Washington Center
Sat 07:17:14 AM 35.8511 -78.6083 274° West 240 276 11,900  Level Washington Center
Sat 07:18:15 AM 35.8467 -78.6953 266° West 236 272 11,900  Level Washington Center
Sat 07:19:22 AM 35.8467 -78.7797 270° West 255 293 11,900  Level Washington Center
Sat 07:20:23 AM 35.8419 -78.8692 266° West 249 287 11,900  Level Washington Center
Sat 07:21:18 AM 35.8400 -78.9461 268° West 236 272 11,900  Level Washington Center
Sat 07:22:19 AM 35.8356 -79.0253 266° West 236 272 11,900  Level Washington Center
Sat 07:23:19 AM 35.8333 -79.1072 268° West 235 270 11,900 -398 Level Washington Center
Sat 07:25:00 AM 35.8277 -79.2253 267° West  Level FlightAware Approximate
Sat 07:32:00 AM 35.8003 -79.7152 270° West  Level FlightAware Approximate
Sat 07:33:00 AM 35.8005 -79.7854 270° West  Level FlightAware Approximate
Sat 07:34:00 AM 35.8006 -79.8556 270° West  Level FlightAware Approximate
Sat 07:35:00 AM 35.8007 -79.9258 270° West  Level FlightAware Approximate
Sat 07:36:00 AM 35.8007 -80.0116 270° West  Level FlightAware Approximate
Sat 07:37:00 AM 35.8007 -80.0974 270° West  Level FlightAware Approximate
Sat 07:37:08 AM 35.7694 -80.1536 211° Southwest 214 246 6,000  Level Atlanta Center
Sat 07:38:00 AM 35.8006 -80.1832 270° West  Level FlightAware Approximate
Sat 07:38:34 AM 35.7600 -80.2564 264° West 215 247 5,900  Level Atlanta Center
Sat 07:39:00 AM 35.8004 -80.2690 270° West  Level FlightAware Approximate
Sat 07:39:40 AM 35.7542 -80.3361 265° West 217 250 5,900  Level Atlanta Center
Sat 07:40:00 AM 35.8002 -80.3548 270° West  Level FlightAware Approximate
Sat 07:40:42 AM 35.7481 -80.4106 264° West 217 250 6,000  Level Atlanta Center
Sat 07:41:00 AM 35.7950 -80.4371 211° Southwest  Level FlightAware Approximate
Sat 07:41:42 AM 35.7081 -80.4658 228° Southwest 222 255 6,000  Level Atlanta Center
Sat 07:42:00 AM 35.7356 -80.4817 211° Southwest  Level FlightAware Approximate
Sat 07:42:49 AM 35.6506 -80.5042 208° Southwest 221 254 6,000  Level Atlanta Center
Sat 07:43:50 AM 35.5956 -80.5425 210° Southwest 220 253 6,000  Level Atlanta Center
Sat 07:44:39 AM 35.5525 -80.5722 209° Southwest 219 252 6,000  Level Atlanta Center
Sat 07:45:46 AM 35.4911 -80.6183 211° Southwest 219 252 6,000  Level Atlanta Center
Sat 07:46:59 AM 35.4317 -80.6564 208° Southwest 203 234 6,000 -197 Level Atlanta Center
Sat 07:47:48 AM 35.4119 -80.6928 236° Southwest 182 209 5,600 -545 Descending Atlanta Center
Sat 07:48:49 AM 35.3839 -80.7375 232° Southwest 182 209 5,000 -724 Descending Atlanta Center
Sat 07:49:44 AM 35.3431 -80.7669 210° Southwest 188 216 4,200 -873 Descending Atlanta Center

Login

Don't have an account? Register now (free) for customized features, flight alerts, and more!